Time;durP1;ratioP1;P1;durP2;ratioP2;P2;SDS_P1;SDS_P2;PMS_P1;PMS_P2;Temp;Humidity;BMP_temperature;BMP_pressure;BME280_temperature;BME280_humidity;BME280_pressure;Samples;Min_cycle;Max_cycle;Signal;HPM_P1;HPM_P2
2023/03/26 00:01:20;;;;;;;11.47;3.30;;;10.50;99.90;;;;;;5054144;28;20609;-73
2023/03/26 00:03:52;;;;;;;10.43;2.43;;;10.50;99.90;;;;;;5054494;28;20152;-72
2023/03/26 00:06:27;;;;;;;12.90;3.07;;;10.40;99.90;;;;;;5054644;28;20159;-72
2023/03/26 00:08:54;;;;;;;13.70;2.20;;;10.20;99.90;;;;;;5053310;28;20187;-73
2023/03/26 00:11:22;;;;;;;16.57;2.60;;;10.20;99.90;;;;;;5053052;28;20237;-73
2023/03/26 00:13:48;;;;;;;13.20;2.67;;;10.10;99.90;;;;;;5054279;28;20172;-72
2023/03/26 00:16:17;;;;;;;12.63;2.23;;;10.20;99.90;;;;;;5052573;28;20577;-72
2023/03/26 00:18:43;;;;;;;9.57;2.20;;;10.20;99.90;;;;;;5054048;28;20687;-73
2023/03/26 00:21:15;;;;;;;8.57;1.90;;;10.20;99.90;;;;;;5053155;28;20160;-72
2023/03/26 00:23:41;;;;;;;16.37;2.30;;;10.50;99.90;;;;;;5052988;28;20267;-72
2023/03/26 00:26:09;;;;;;;11.30;2.73;;;10.50;99.90;;;;;;5046190;28;20622;-72
2023/03/26 00:28:39;;;;;;;11.47;2.40;;;10.60;99.90;;;;;;5034509;28;20149;-72
2023/03/26 00:31:06;;;;;;;8.63;2.23;;;10.60;99.90;;;;;;5032918;28;20528;-74
2023/03/26 00:33:32;;;;;;;10.83;2.60;;;10.60;99.90;;;;;;5049613;28;20180;-75
2023/03/26 00:35:59;;;;;;;11.43;3.27;;;10.60;99.90;;;;;;5035316;28;20265;-73
2023/03/26 00:38:27;;;;;;;14.03;3.13;;;10.60;99.90;;;;;;5051913;28;20180;-73
2023/03/26 00:40:53;;;;;;;19.40;3.70;;;10.60;99.90;;;;;;5052260;28;20203;-74
2023/03/26 00:43:21;;;;;;;16.23;3.43;;;10.60;99.90;;;;;;5049515;28;20325;-73
2023/03/26 00:45:50;;;;;;;13.30;2.53;;;10.70;99.90;;;;;;5052470;28;20179;-72
2023/03/26 00:48:16;;;;;;;12.40;3.00;;;10.70;99.90;;;;;;5051890;28;20222;-73
2023/03/26 00:50:45;;;;;;;15.53;2.43;;;10.70;99.90;;;;;;5051083;28;20650;-73
2023/03/26 00:53:12;;;;;;;17.93;3.07;;;10.70;99.90;;;;;;5052251;28;20647;-73
2023/03/26 00:55:39;;;;;;;17.17;2.63;;;10.70;99.90;;;;;;5053487;28;20177;-73
2023/03/26 00:58:08;;;;;;;14.97;3.40;;;10.70;99.90;;;;;;5052152;28;20188;-72
2023/03/26 01:00:36;;;;;;;16.87;3.30;;;10.70;99.90;;;;;;5051859;28;20200;-73
2023/03/26 01:03:03;;;;;;;12.67;3.33;;;10.70;99.90;;;;;;5052006;28;20177;-73
2023/03/26 01:05:34;;;;;;;13.30;3.17;;;10.70;99.90;;;;;;5051889;28;20174;-73
2023/03/26 01:08:16;;;;;;;14.17;3.33;;;10.70;99.90;;;;;;5038391;28;20256;-73
2023/03/26 01:10:49;;;;;;;20.47;3.20;;;10.70;99.90;;;;;;5053238;28;20190;-72
2023/03/26 01:13:22;;;;;;;14.77;3.40;;;10.80;99.90;;;;;;5051874;28;20260;-73
2023/03/26 01:15:49;;;;;;;20.20;4.00;;;10.70;99.90;;;;;;5051302;28;20259;-73
2023/03/26 01:18:25;;;;;;;16.33;3.80;;;10.60;99.90;;;;;;5051891;28;20162;-72
2023/03/26 01:20:57;;;;;;;18.50;3.47;;;10.30;99.90;;;;;;5053296;28;20167;-73
2023/03/26 01:23:29;;;;;;;17.23;3.83;;;10.20;99.90;;;;;;5053443;28;20179;-73
2023/03/26 01:26:25;;;;;;;16.13;4.00;;;10.10;99.90;;;;;;5053019;28;20635;-72
2023/03/26 01:28:58;;;;;;;14.73;3.20;;;10.20;99.90;;;;;;5042239;28;20582;-73
2023/03/26 01:31:36;;;;;;;13.37;3.07;;;10.30;99.90;;;;;;5051396;28;20667;-73
2023/03/26 01:34:26;;;;;;;14.80;3.53;;;10.20;99.90;;;;;;5051945;28;20159;-72
2023/03/26 01:36:57;;;;;;;17.07;3.50;;;10.20;99.90;;;;;;5051724;28;20183;-73
2023/03/26 01:39:48;;;;;;;17.47;3.33;;;10.20;99.90;;;;;;5051548;28;20245;-73
2023/03/26 01:42:24;;;;;;;11.33;2.67;;;10.10;99.90;;;;;;5051551;28;20168;-72
2023/03/26 01:44:56;;;;;;;12.83;3.70;;;10.20;99.90;;;;;;5051237;28;20183;-72
2023/03/26 01:47:22;;;;;;;14.00;2.93;;;10.20;99.90;;;;;;5052716;28;20152;-73
2023/03/26 01:49:48;;;;;;;12.47;2.63;;;10.20;99.90;;;;;;5052554;28;20540;-72
2023/03/26 01:52:23;;;;;;;12.00;2.97;;;10.20;99.90;;;;;;5051880;28;20222;-74
2023/03/26 01:54:49;;;;;;;18.20;3.40;;;10.30;99.90;;;;;;5050059;28;20191;-71
2023/03/26 01:57:49;;;;;;;18.20;3.37;;;10.30;99.90;;;;;;5050923;28;20172;-72
2023/03/26 02:00:18;;;;;;;17.37;2.90;;;10.30;99.90;;;;;;5039369;28;20206;-72
2023/03/26 02:03:25;;;;;;;16.23;3.07;;;10.30;99.90;;;;;;5051606;28;20640;-72
2023/03/26 02:06:02;;;;;;;9.00;2.77;;;10.20;99.90;;;;;;5043740;28;20582;-73
2023/03/26 02:08:40;;;;;;;13.20;3.40;;;10.30;99.90;;;;;;5050106;28;20180;-73
2023/03/26 02:11:12;;;;;;;15.47;3.40;;;10.20;99.90;;;;;;5050919;28;20624;-72
2023/03/26 02:13:43;;;;;;;14.93;3.90;;;10.30;99.90;;;;;;5050962;28;20358;-73
2023/03/26 02:16:20;;;;;;;15.00;3.43;;;10.30;99.90;;;;;;5050878;28;20168;-73
2023/03/26 02:18:50;;;;;;;16.97;3.50;;;10.40;99.90;;;;;;5052186;28;20671;-74
2023/03/26 02:21:21;;;;;;;13.40;3.07;;;10.40;99.90;;;;;;5051278;28;20160;-74
2023/03/26 02:23:56;;;;;;;12.50;3.37;;;10.40;99.90;;;;;;5052916;28;20199;-73
2023/03/26 02:26:22;;;;;;;16.90;3.73;;;10.50;99.90;;;;;;5050474;28;20183;-73
2023/03/26 02:28:48;;;;;;;14.53;3.13;;;10.50;99.90;;;;;;5055140;28;20257;-73
2023/03/26 02:31:15;;;;;;;20.33;3.20;;;10.50;99.90;;;;;;5054579;28;20633;-73
2023/03/26 02:33:43;;;;;;;11.17;3.10;;;10.40;99.90;;;;;;5056322;28;20158;-73
2023/03/26 02:36:12;;;;;;;17.40;3.60;;;10.50;99.90;;;;;;5054642;28;20636;-73
2023/03/26 02:38:40;;;;;;;11.63;3.13;;;10.50;99.90;;;;;;5054793;28;20183;-73
2023/03/26 02:41:06;;;;;;;14.43;2.77;;;10.60;99.90;;;;;;5054726;28;20641;-74
2023/03/26 02:43:32;;;;;;;17.67;4.27;;;10.50;99.90;;;;;;5054692;28;20175;-74
2023/03/26 02:45:57;;;;;;;17.97;4.93;;;10.60;99.90;;;;;;5056117;28;20255;-73
2023/03/26 02:48:23;;;;;;;12.70;3.00;;;10.50;99.90;;;;;;5055620;28;20482;-74
2023/03/26 02:50:53;;;;;;;14.63;3.03;;;10.60;99.90;;;;;;5055931;28;20206;-73
2023/03/26 02:53:20;;;;;;;16.70;3.07;;;10.50;99.90;;;;;;5054874;28;20616;-74
2023/03/26 02:55:46;;;;;;;15.53;3.20;;;10.60;99.90;;;;;;5054187;28;20503;-73
2023/03/26 02:58:16;;;;;;;12.73;2.77;;;10.60;99.90;;;;;;5054328;28;20200;-74
2023/03/26 03:00:43;;;;;;;17.97;3.90;;;10.60;99.90;;;;;;5054284;28;20202;-73
2023/03/26 03:03:09;;;;;;;13.27;3.03;;;10.60;99.90;;;;;;5053995;28;20180;-74
2023/03/26 03:05:36;;;;;;;16.00;3.37;;;10.60;99.90;;;;;;5054278;28;20178;-73
2023/03/26 03:08:03;;;;;;;13.00;3.23;;;10.50;99.90;;;;;;5052721;28;20551;-75
2023/03/26 03:10:31;;;;;;;12.40;3.23;;;10.50;99.90;;;;;;5053303;28;20206;-74
2023/03/26 03:12:57;;;;;;;13.80;2.80;;;10.50;99.90;;;;;;5052185;28;20172;-74
2023/03/26 03:15:23;;;;;;;10.87;2.93;;;10.60;99.90;;;;;;5052193;28;20172;-74
2023/03/26 03:17:49;;;;;;;15.13;2.37;;;10.70;99.90;;;;;;5053616;28;20172;-73
2023/03/26 03:20:17;;;;;;;11.20;3.10;;;10.70;99.90;;;;;;5053938;28;20195;-73
2023/03/26 03:22:43;;;;;;;14.47;2.77;;;10.70;99.90;;;;;;5053641;28;20173;-74
2023/03/26 03:25:13;;;;;;;15.37;3.40;;;10.70;99.90;;;;;;5053767;28;20193;-74
2023/03/26 03:27:40;;;;;;;11.00;3.00;;;10.70;99.90;;;;;;5053768;28;20170;-73
2023/03/26 03:30:07;;;;;;;16.13;3.30;;;10.70;99.90;;;;;;5053718;28;20181;-74
2023/03/26 03:32:33;;;;;;;17.50;3.47;;;10.60;99.90;;;;;;5053546;28;20175;-73
2023/03/26 03:34:58;;;;;;;18.20;4.13;;;10.60;99.90;;;;;;5053945;28;20162;-73
2023/03/26 03:37:25;;;;;;;15.83;3.00;;;10.60;99.90;;;;;;5053551;28;20555;-74
2023/03/26 03:39:51;;;;;;;15.77;3.27;;;10.70;99.90;;;;;;5053415;28;20552;-74
2023/03/26 03:42:17;;;;;;;12.30;2.73;;;10.70;99.90;;;;;;5053813;28;20167;-73
2023/03/26 03:44:42;;;;;;;10.60;2.43;;;10.70;99.90;;;;;;5053637;28;20171;-74
2023/03/26 03:47:09;;;;;;;12.47;2.50;;;10.90;99.90;;;;;;5053589;28;20255;-74
2023/03/26 03:49:35;;;;;;;13.90;3.10;;;10.80;99.90;;;;;;5053523;28;20165;-73
2023/03/26 03:52:01;;;;;;;13.67;3.20;;;10.70;99.90;;;;;;5053554;28;20214;-73
2023/03/26 03:54:27;;;;;;;12.77;2.97;;;10.60;99.90;;;;;;5016628;28;1079904;-75
2023/03/26 03:56:52;;;;;;;11.13;2.73;;;10.70;99.90;;;;;;5053307;28;20188;-73
2023/03/26 03:59:18;;;;;;;12.63;2.77;;;10.70;99.90;;;;;;5054436;28;20203;-73
2023/03/26 04:01:45;;;;;;;13.07;3.03;;;10.70;99.90;;;;;;5054634;28;20237;-74
2023/03/26 04:04:13;;;;;;;14.30;3.23;;;10.70;99.90;;;;;;5053201;28;20173;-74
2023/03/26 04:06:39;;;;;;;12.17;2.40;;;10.70;99.90;;;;;;5053569;28;20255;-74
2023/03/26 04:09:04;;;;;;;17.50;3.47;;;10.70;99.90;;;;;;5052841;28;20217;-75
2023/03/26 04:11:30;;;;;;;9.90;2.97;;;10.60;99.90;;;;;;5054339;28;20184;-74
2023/03/26 04:13:56;;;;;;;12.50;3.27;;;10.70;99.90;;;;;;5054028;28;20167;-73
2023/03/26 04:16:24;;;;;;;11.27;3.30;;;10.60;99.90;;;;;;5053014;28;20319;-75
2023/03/26 04:18:50;;;;;;;16.73;3.33;;;10.60;99.90;;;;;;5053518;28;20249;-74
2023/03/26 04:21:16;;;;;;;11.07;3.37;;;10.60;99.90;;;;;;5054146;28;20167;-74
2023/03/26 04:23:47;;;;;;;11.37;3.00;;;10.60;99.90;;;;;;5050471;28;20177;-73
2023/03/26 04:26:17;;;;;;;13.67;2.50;;;10.70;99.90;;;;;;5053857;28;20170;-74
2023/03/26 04:28:49;;;;;;;11.33;2.60;;;10.60;99.90;;;;;;5051748;28;20182;-74
2023/03/26 04:31:22;;;;;;;11.50;2.53;;;10.50;99.90;;;;;;5050627;28;20165;-74
2023/03/26 04:33:53;;;;;;;16.97;3.20;;;10.50;99.90;;;;;;5051466;28;20655;-74
2023/03/26 04:36:26;;;;;;;16.67;2.80;;;10.40;99.90;;;;;;5052630;28;20188;-74
2023/03/26 04:38:52;;;;;;;17.33;3.60;;;10.40;99.90;;;;;;5050936;28;20212;-74
2023/03/26 04:41:17;;;;;;;13.73;2.63;;;10.40;99.90;;;;;;5051217;28;20191;-74
2023/03/26 04:43:46;;;;;;;15.07;3.30;;;10.30;99.90;;;;;;5053765;28;20159;-74
2023/03/26 04:46:23;;;;;;;14.20;2.97;;;10.40;99.90;;;;;;5053218;28;20673;-73
2023/03/26 04:48:50;;;;;;;18.77;2.80;;;10.40;99.90;;;;;;5053410;28;20633;-74
2023/03/26 04:51:18;;;;;;;12.30;2.50;;;10.50;99.90;;;;;;5051422;28;20177;-73
2023/03/26 04:53:52;;;;;;;11.53;2.70;;;10.60;99.90;;;;;;5049654;28;20282;-73
2023/03/26 04:56:23;;;;;;;16.17;3.13;;;10.70;99.90;;;;;;5052557;28;20174;-75
2023/03/26 04:58:50;;;;;;;13.13;2.77;;;10.60;99.90;;;;;;5052808;28;20260;-74
2023/03/26 05:01:16;;;;;;;13.33;2.50;;;10.60;99.90;;;;;;5052675;28;20207;-73
2023/03/26 05:03:44;;;;;;;10.87;2.40;;;10.60;99.90;;;;;;5052466;28;20581;-74
2023/03/26 05:06:11;;;;;;;8.77;2.20;;;10.60;99.90;;;;;;5053220;28;20173;-73
2023/03/26 05:08:37;;;;;;;11.40;2.17;;;10.50;99.90;;;;;;5050190;28;20617;-74
2023/03/26 05:11:10;;;;;;;10.80;3.00;;;10.50;99.90;;;;;;5051627;28;20171;-74
2023/03/26 05:13:36;;;;;;;9.10;2.77;;;10.40;99.90;;;;;;5053035;28;20203;-74
2023/03/26 05:16:01;;;;;;;9.50;2.60;;;10.40;99.90;;;;;;5051617;28;20208;-73
2023/03/26 05:18:27;;;;;;;12.07;2.13;;;10.30;99.90;;;;;;5052933;28;20609;-73
2023/03/26 05:20:56;;;;;;;8.50;1.97;;;10.40;99.90;;;;;;5050996;28;20191;-72
2023/03/26 05:23:21;;;;;;;8.83;1.90;;;10.30;99.90;;;;;;5052825;28;20164;-73
2023/03/26 05:25:47;;;;;;;9.53;2.33;;;10.40;99.90;;;;;;5052871;28;20211;-74
2023/03/26 05:28:13;;;;;;;9.23;1.80;;;10.40;99.90;;;;;;5052650;28;20161;-74
2023/03/26 05:30:42;;;;;;;7.13;1.77;;;10.40;99.90;;;;;;5052713;28;20221;-74
2023/03/26 05:33:09;;;;;;;7.73;2.33;;;10.30;99.90;;;;;;5052738;28;20628;-74
2023/03/26 05:35:35;;;;;;;8.27;1.43;;;10.30;99.90;;;;;;5051872;28;20173;-73
2023/03/26 05:38:02;;;;;;;7.93;1.70;;;10.50;99.90;;;;;;5035930;28;20708;-73
2023/03/26 05:40:28;;;;;;;12.70;1.70;;;10.50;99.90;;;;;;5050952;28;20287;-73
2023/03/26 05:42:53;;;;;;;7.00;1.53;;;10.50;99.90;;;;;;5050355;28;20253;-74
2023/03/26 05:45:21;;;;;;;9.03;1.93;;;10.50;99.90;;;;;;5051306;28;20187;-73
2023/03/26 05:47:48;;;;;;;7.67;1.60;;;10.60;99.90;;;;;;5051415;28;20169;-74
2023/03/26 05:50:15;;;;;;;7.73;1.90;;;10.50;99.90;;;;;;5050208;28;20169;-74
2023/03/26 05:52:41;;;;;;;5.70;1.50;;;10.50;99.90;;;;;;5052377;28;20637;-74
2023/03/26 05:55:09;;;;;;;5.83;1.20;;;10.50;99.90;;;;;;5051368;28;20171;-74
2023/03/26 05:57:34;;;;;;;7.67;2.13;;;10.50;99.90;;;;;;5052503;28;20161;-73
2023/03/26 06:00:03;;;;;;;4.93;1.20;;;10.60;99.90;;;;;;5051113;28;20207;-74
2023/03/26 06:02:29;;;;;;;8.43;1.67;;;10.40;99.90;;;;;;5052088;28;20169;-74
2023/03/26 06:04:55;;;;;;;7.97;1.80;;;10.40;99.90;;;;;;5052467;28;20229;-73
2023/03/26 06:07:21;;;;;;;8.37;1.40;;;10.30;99.90;;;;;;5052427;28;20142;-73
2023/03/26 06:09:47;;;;;;;9.27;1.80;;;10.30;99.90;;;;;;5051220;28;20178;-74
2023/03/26 06:12:13;;;;;;;8.43;1.40;;;10.20;99.90;;;;;;5052197;28;20262;-73
2023/03/26 06:14:41;;;;;;;8.33;1.80;;;10.40;99.90;;;;;;5052406;28;20592;-74
2023/03/26 06:17:08;;;;;;;8.13;1.97;;;10.30;99.90;;;;;;5051024;28;20225;-74
2023/03/26 06:19:34;;;;;;;10.20;1.73;;;10.30;99.90;;;;;;5052222;28;20756;-75
2023/03/26 06:22:01;;;;;;;8.23;1.90;;;10.30;99.90;;;;;;5052368;28;20224;-73
2023/03/26 06:24:26;;;;;;;7.83;2.13;;;10.50;99.90;;;;;;5053204;28;20167;-73
2023/03/26 06:26:52;;;;;;;9.73;2.20;;;10.50;99.90;;;;;;5051949;28;20171;-73
2023/03/26 06:29:18;;;;;;;7.73;2.00;;;10.50;99.90;;;;;;5052445;28;20525;-74
2023/03/26 06:31:43;;;;;;;13.27;2.27;;;10.40;99.90;;;;;;5050823;28;20231;-73
2023/03/26 06:34:09;;;;;;;8.67;1.77;;;10.40;99.90;;;;;;5051993;28;20175;-75
2023/03/26 06:36:35;;;;;;;11.33;3.13;;;10.20;99.90;;;;;;5053082;28;20165;-74
2023/03/26 06:39:01;;;;;;;8.23;2.33;;;10.30;99.90;;;;;;5053073;28;20286;-74
2023/03/26 06:41:28;;;;;;;5.57;1.80;;;10.20;99.90;;;;;;5053207;28;20599;-73
2023/03/26 06:43:56;;;;;;;8.40;2.20;;;10.30;99.90;;;;;;5053380;28;20165;-79
2023/03/26 06:46:22;;;;;;;6.30;1.90;;;10.20;99.90;;;;;;5050838;28;20170;-75
2023/03/26 06:48:47;;;;;;;5.47;1.67;;;10.20;99.90;;;;;;5051153;28;20178;-73
2023/03/26 06:51:14;;;;;;;11.33;1.80;;;10.30;99.90;;;;;;5052376;28;20665;-73
2023/03/26 06:53:40;;;;;;;8.83;1.80;;;10.30;99.90;;;;;;5051574;28;20184;-74
2023/03/26 06:56:06;;;;;;;7.97;2.20;;;10.30;99.90;;;;;;5050408;28;20206;-74
2023/03/26 06:58:31;;;;;;;5.97;1.50;;;10.30;99.90;;;;;;5050322;28;20182;-74
2023/03/26 07:00:57;;;;;;;7.87;1.77;;;10.30;99.90;;;;;;5051793;28;20653;-73
2023/03/26 07:03:23;;;;;;;5.73;1.13;;;10.40;99.90;;;;;;5051694;28;20169;-74
2023/03/26 07:05:48;;;;;;;5.17;1.63;;;10.40;99.90;;;;;;5051761;28;20172;-73
2023/03/26 07:08:14;;;;;;;4.07;1.27;;;10.40;99.90;;;;;;5051773;28;20683;-74
2023/03/26 07:10:40;;;;;;;3.63;1.20;;;10.20;99.90;;;;;;5050510;28;20571;-73
2023/03/26 07:13:07;;;;;;;4.50;1.13;;;10.10;99.90;;;;;;5053076;28;20616;-74
2023/03/26 07:15:33;;;;;;;4.97;1.33;;;10.00;99.90;;;;;;5055389;28;20212;-74
2023/03/26 07:18:00;;;;;;;4.77;1.30;;;10.10;99.90;;;;;;5055186;28;20192;-73
2023/03/26 07:20:26;;;;;;;5.13;1.30;;;10.00;99.90;;;;;;5054200;28;20230;-74
2023/03/26 07:22:52;;;;;;;3.20;1.30;;;10.10;99.90;;;;;;5055230;28;20165;-74
2023/03/26 07:25:19;;;;;;;6.00;1.40;;;10.20;99.90;;;;;;5055811;28;20156;-74
2023/03/26 07:28:10;;;;;;;5.60;1.33;;;10.00;99.90;;;;;;5054144;28;20164;-74
2023/03/26 07:30:55;;;;;;;4.40;1.07;;;10.00;99.90;;;;;;5055330;28;20451;-74
2023/03/26 07:33:43;;;;;;;6.97;1.47;;;10.00;99.90;;;;;;5054045;28;20557;-74
2023/03/26 07:36:38;;;;;;;6.33;1.20;;;10.20;99.90;;;;;;5055158;28;20194;-74
2023/03/26 07:39:22;;;;;;;3.93;0.90;;;10.10;99.90;;;;;;5052819;28;20226;-74
2023/03/26 07:42:05;;;;;;;6.50;0.80;;;10.00;99.90;;;;;;5054891;28;20247;-74
2023/03/26 07:44:55;;;;;;;2.70;1.10;;;10.00;99.90;;;;;;5054893;28;20176;-74
2023/03/26 07:47:24;;;;;;;4.47;0.80;;;10.10;99.90;;;;;;5054459;28;20221;-73
2023/03/26 07:49:52;;;;;;;3.77;0.80;;;10.10;99.90;;;;;;5054730;28;20159;-75
2023/03/26 07:52:18;;;;;;;3.60;1.03;;;10.00;99.90;;;;;;5054581;28;20164;-73
2023/03/26 07:54:44;;;;;;;3.00;0.80;;;10.10;99.90;;;;;;5054834;28;20178;-74
2023/03/26 07:57:52;;;;;;;5.40;0.90;;;10.20;99.90;;;;;;5054895;28;20184;-74
2023/03/26 08:00:22;;;;;;;5.73;1.30;;;10.20;99.90;;;;;;4992913;28;20264;-73
2023/03/26 08:03:25;;;;;;;4.87;0.90;;;9.90;99.90;;;;;;5038616;28;20176;-73
2023/03/26 08:06:29;;;;;;;1.90;1.00;;;9.70;99.90;;;;;;5054612;28;20496;-74
2023/03/26 08:09:27;;;;;;;2.73;0.90;;;9.80;99.90;;;;;;5054343;28;20179;-74
2023/03/26 08:12:00;;;;;;;2.73;0.80;;;9.90;99.90;;;;;;5054511;28;20254;-73
2023/03/26 08:14:35;;;;;;;3.47;0.80;;;10.00;99.90;;;;;;5052712;28;20165;-75
2023/03/26 08:17:15;;;;;;;2.73;0.97;;;10.00;99.90;;;;;;5044445;28;20179;-74
2023/03/26 08:19:57;;;;;;;2.03;1.13;;;9.90;99.90;;;;;;5042029;28;20278;-74
2023/03/26 08:22:49;;;;;;;5.93;0.70;;;9.90;99.90;;;;;;5037169;28;20184;-74
2023/03/26 08:25:33;;;;;;;6.27;0.70;;;9.90;99.90;;;;;;5045130;28;20171;-73
2023/03/26 08:28:21;;;;;;;3.23;0.70;;;9.70;99.90;;;;;;5035899;28;20226;-74
2023/03/26 08:30:46;;;;;;;4.60;1.00;;;9.60;99.90;;;;;;5034283;28;20180;-75
2023/03/26 08:33:15;;;;;;;1.93;0.67;;;9.50;99.90;;;;;;5034715;28;20183;-74
2023/03/26 08:35:43;;;;;;;2.57;0.77;;;9.50;99.90;;;;;;5051447;28;20187;-74
2023/03/26 08:38:12;;;;;;;3.47;0.90;;;9.60;99.90;;;;;;5054515;28;20566;-78
2023/03/26 08:41:07;;;;;;;2.07;1.13;;;9.60;99.90;;;;;;5053972;28;20525;-74
2023/03/26 08:43:48;;;;;;;4.67;0.97;;;9.70;99.90;;;;;;5054140;28;20202;-74
2023/03/26 08:46:32;;;;;;;3.00;1.10;;;9.80;99.90;;;;;;5050865;28;20168;-73
2023/03/26 08:49:35;;;;;;;3.97;1.10;;;10.00;99.90;;;;;;5035250;28;20177;-73
2023/03/26 08:52:38;;;;;;;2.57;0.60;;;9.90;99.90;;;;;;5043295;28;20236;-74
2023/03/26 08:55:37;;;;;;;3.20;1.00;;;9.80;99.90;;;;;;5034150;28;20177;-74
2023/03/26 08:58:17;;;;;;;5.73;1.20;;;9.70;99.90;;;;;;5029638;28;20181;-74
2023/03/26 09:01:04;;;;;;;6.47;1.10;;;9.80;99.90;;;;;;5033962;28;20192;-73
2023/03/26 09:03:57;;;;;;;2.83;1.17;;;9.60;99.90;;;;;;5039335;28;20180;-74
2023/03/26 09:07:05;;;;;;;2.67;1.17;;;9.60;99.90;;;;;;5040376;28;20180;-74
2023/03/26 09:10:01;;;;;;;4.10;1.00;;;9.50;99.90;;;;;;5040071;28;20200;-74
2023/03/26 09:13:04;;;;;;;4.90;1.10;;;9.50;99.90;;;;;;5030281;28;20275;-74
2023/03/26 09:15:48;;;;;;;4.10;1.30;;;9.60;99.90;;;;;;5039514;28;20180;-74
2023/03/26 09:18:32;;;;;;;5.27;1.20;;;9.60;99.90;;;;;;5040504;28;20184;-73
2023/03/26 09:21:42;;;;;;;4.47;1.30;;;9.60;99.90;;;;;;5045864;28;20329;-73
2023/03/26 09:24:32;;;;;;;4.30;1.30;;;9.80;99.90;;;;;;5032121;28;20260;-74
2023/03/26 09:27:35;;;;;;;2.30;1.00;;;9.60;99.90;;;;;;5004354;28;20177;-75
2023/03/26 09:30:40;;;;;;;3.20;1.30;;;9.50;99.90;;;;;;5031567;28;20625;-74
2023/03/26 09:33:13;;;;;;;3.77;1.30;;;9.40;99.90;;;;;;5024319;28;20192;-73
2023/03/26 09:36:05;;;;;;;5.13;1.10;;;9.40;99.90;;;;;;5033159;28;20162;-73
2023/03/26 09:39:21;;;;;;;3.67;1.10;;;9.40;99.90;;;;;;5031293;28;20192;-74
2023/03/26 09:42:16;;;;;;;4.10;1.07;;;9.50;99.90;;;;;;5023461;28;20188;-74
2023/03/26 09:45:03;;;;;;;4.63;1.47;;;9.50;99.90;;;;;;5041361;28;20185;-74
2023/03/26 09:47:43;;;;;;;2.23;1.20;;;9.40;99.90;;;;;;5040980;28;20192;-73
2023/03/26 09:50:28;;;;;;;3.67;1.20;;;9.40;99.90;;;;;;5037986;28;20259;-74
2023/03/26 09:53:19;;;;;;;4.03;1.03;;;9.30;99.90;;;;;;5046331;28;20234;-73
2023/03/26 09:56:03;;;;;;;8.90;1.50;;;9.50;99.90;;;;;;5031588;28;20216;-74
2023/03/26 09:58:45;;;;;;;1.87;0.83;;;9.50;99.90;;;;;;5031359;28;20533;-73
2023/03/26 10:01:39;;;;;;;2.47;1.13;;;9.50;99.90;;;;;;5031348;28;20192;-74
2023/03/26 10:04:34;;;;;;;5.30;1.30;;;9.40;99.90;;;;;;5030825;28;20195;-74
2023/03/26 10:07:29;;;;;;;1.90;1.20;;;9.50;99.90;;;;;;5031216;28;20289;-73
2023/03/26 10:09:57;;;;;;;5.93;1.20;;;9.50;99.90;;;;;;5032364;28;20638;-73
2023/03/26 10:12:56;;;;;;;3.80;1.20;;;9.60;99.90;;;;;;5031686;28;20240;-74
2023/03/26 10:15:42;;;;;;;4.43;1.30;;;9.50;99.90;;;;;;5032487;28;20223;-74
2023/03/26 10:18:26;;;;;;;3.73;1.03;;;9.70;99.90;;;;;;5030893;28;20176;-73
2023/03/26 10:21:02;;;;;;;2.40;1.30;;;9.70;99.90;;;;;;5032047;28;20211;-74
2023/03/26 10:23:52;;;;;;;1.53;1.10;;;9.70;99.90;;;;;;5032197;28;20273;-74
2023/03/26 10:26:32;;;;;;;3.17;1.13;;;9.70;99.90;;;;;;5032043;28;20172;-74
2023/03/26 10:29:13;;;;;;;2.57;1.10;;;9.70;99.90;;;;;;5030973;28;20168;-74
2023/03/26 10:31:50;;;;;;;2.70;1.10;;;9.70;99.90;;;;;;5032012;28;20168;-73
2023/03/26 10:34:46;;;;;;;2.90;1.13;;;9.70;99.90;;;;;;5030740;28;20174;-73
2023/03/26 10:37:35;;;;;;;3.63;1.13;;;9.80;99.90;;;;;;5030566;28;20185;-74
2023/03/26 10:40:19;;;;;;;4.03;1.40;;;9.90;99.90;;;;;;5031771;28;20628;-74
2023/03/26 10:42:47;;;;;;;3.07;1.00;;;9.80;99.90;;;;;;5030791;28;20255;-74
2023/03/26 10:46:10;;;;;;;4.90;1.03;;;9.70;99.90;;;;;;5030856;28;20252;-74
2023/03/26 10:48:44;;;;;;;5.07;0.97;;;9.70;99.90;;;;;;5011785;28;20177;-74
2023/03/26 10:51:12;;;;;;;2.53;1.10;;;9.70;99.90;;;;;;5014043;28;20180;-74
2023/03/26 10:53:55;;;;;;;4.83;0.93;;;9.80;99.90;;;;;;5037459;28;20200;-74
2023/03/26 10:56:35;;;;;;;4.53;1.23;;;9.70;99.90;;;;;;5035917;28;20165;-74
2023/03/26 10:59:11;;;;;;;2.77;1.10;;;9.70;99.90;;;;;;5034096;28;20266;-73
2023/03/26 11:01:47;;;;;;;3.57;1.10;;;9.80;99.90;;;;;;5034376;28;20517;-74
2023/03/26 11:04:41;;;;;;;2.97;1.07;;;9.80;99.90;;;;;;5035724;28;20187;-75
2023/03/26 11:07:38;;;;;;;3.53;1.03;;;9.80;99.90;;;;;;5035594;28;20665;-74
2023/03/26 11:10:39;;;;;;;2.83;1.20;;;9.70;99.90;;;;;;5034190;28;20176;-74
2023/03/26 11:13:32;;;;;;;2.67;0.90;;;9.80;99.90;;;;;;5013560;28;20182;-74
2023/03/26 11:16:04;;;;;;;3.13;1.03;;;9.80;99.90;;;;;;5050101;28;20223;-74
2023/03/26 11:19:07;;;;;;;5.50;1.20;;;9.80;99.90;;;;;;5035576;28;20216;-74
2023/03/26 11:21:39;;;;;;;2.97;1.00;;;9.90;99.90;;;;;;5026856;28;20187;-75
2023/03/26 11:24:12;;;;;;;2.27;1.00;;;10.00;99.90;;;;;;5035292;28;20154;-75
2023/03/26 11:27:06;;;;;;;2.90;1.43;;;10.10;99.90;;;;;;5035496;28;20177;-75
2023/03/26 11:30:02;;;;;;;2.33;0.90;;;10.10;99.90;;;;;;5033932;28;20657;-74
2023/03/26 11:32:40;;;;;;;3.73;1.13;;;10.20;99.90;;;;;;5035364;28;20149;-74
2023/03/26 11:35:20;;;;;;;4.53;1.43;;;10.10;99.90;;;;;;5035107;28;20164;-75
2023/03/26 11:37:52;;;;;;;1.83;0.93;;;10.20;99.90;;;;;;5033610;28;20664;-74
2023/03/26 11:40:23;;;;;;;1.80;1.10;;;10.30;99.90;;;;;;5034931;28;20202;-74
2023/03/26 11:42:56;;;;;;;9.00;1.60;;;10.30;99.90;;;;;;5035015;28;20143;-75
2023/03/26 11:45:26;;;;;;;5.30;1.50;;;10.30;99.90;;;;;;5033872;28;20200;-74
2023/03/26 11:48:15;;;;;;;2.73;1.00;;;10.40;99.90;;;;;;5034918;28;20163;-74
2023/03/26 11:50:46;;;;;;;3.27;1.10;;;10.40;99.90;;;;;;5033623;28;20165;-76
2023/03/26 11:53:16;;;;;;;1.43;1.07;;;10.50;99.90;;;;;;5033105;28;20315;-75
2023/03/26 11:56:13;;;;;;;2.33;0.93;;;10.60;99.90;;;;;;5033471;28;20179;-74
2023/03/26 11:58:51;;;;;;;3.33;1.00;;;10.70;99.90;;;;;;5034383;28;20213;-74
2023/03/26 12:01:49;;;;;;;1.23;0.60;;;10.70;99.90;;;;;;5033439;28;20172;-74
2023/03/26 12:04:18;;;;;;;3.13;0.93;;;10.50;99.90;;;;;;5030403;28;20177;-76
2023/03/26 12:07:03;;;;;;;3.37;1.10;;;10.60;99.90;;;;;;5034428;28;20165;-74
2023/03/26 12:09:30;;;;;;;2.90;1.00;;;10.90;99.90;;;;;;5034298;28;20582;-73
2023/03/26 12:12:02;;;;;;;2.73;1.00;;;10.90;99.90;;;;;;5035239;28;20166;-73
2023/03/26 12:14:31;;;;;;;4.63;1.43;;;10.90;99.90;;;;;;5035121;28;20184;-73
2023/03/26 12:17:11;;;;;;;2.37;1.30;;;11.00;99.90;;;;;;5034444;28;20186;-74
2023/03/26 12:19:42;;;;;;;2.87;1.23;;;10.80;99.90;;;;;;5034875;28;20194;-74
2023/03/26 12:22:31;;;;;;;5.87;1.53;;;10.80;99.90;;;;;;5034400;28;20160;-74
2023/03/26 12:25:21;;;;;;;1.20;1.10;;;10.90;99.90;;;;;;5034426;28;20260;-74
2023/03/26 12:28:27;;;;;;;1.40;1.30;;;10.80;99.90;;;;;;5031130;28;20190;-74
2023/03/26 12:31:02;;;;;;;4.30;1.30;;;10.70;99.90;;;;;;5011942;28;20684;-74
2023/03/26 12:33:32;;;;;;;2.63;1.33;;;10.70;99.90;;;;;;5045185;28;20192;-74
2023/03/26 12:36:15;;;;;;;2.33;1.50;;;10.60;99.90;;;;;;5032505;28;20181;-74
2023/03/26 12:38:41;;;;;;;2.70;1.37;;;10.70;99.90;;;;;;5034064;28;20171;-73
2023/03/26 12:41:18;;;;;;;4.00;2.10;;;10.70;99.90;;;;;;5033712;28;20259;-74
2023/03/26 12:43:53;;;;;;;1.87;1.40;;;10.90;99.90;;;;;;5032787;28;20706;-74
2023/03/26 12:46:34;;;;;;;4.37;1.57;;;10.90;99.90;;;;;;5034297;28;20160;-74
2023/03/26 12:49:02;;;;;;;2.87;1.40;;;10.80;99.90;;;;;;5033703;28;20203;-74
2023/03/26 12:51:39;;;;;;;3.13;1.40;;;10.90;99.90;;;;;;5033556;28;20617;-75
2023/03/26 12:54:16;;;;;;;1.50;1.33;;;10.70;99.90;;;;;;5033576;28;20269;-74
2023/03/26 12:57:19;;;;;;;2.87;1.30;;;10.90;99.90;;;;;;5033652;28;20242;-73
2023/03/26 12:59:59;;;;;;;3.93;1.30;;;10.60;99.90;;;;;;5032454;28;20216;-74
2023/03/26 13:03:13;;;;;;;1.50;0.90;;;10.60;99.90;;;;;;5033511;28;20681;-74
2023/03/26 13:06:03;;;;;;;1.87;0.90;;;10.60;99.90;;;;;;5033490;28;20686;-75
2023/03/26 13:08:46;;;;;;;1.30;0.90;;;10.90;99.90;;;;;;5033493;28;20249;-74
2023/03/26 13:11:40;;;;;;;2.07;0.90;;;11.20;99.90;;;;;;5032587;28;20183;-74
2023/03/26 13:14:19;;;;;;;2.43;0.77;;;11.30;99.90;;;;;;5032033;28;20173;-74
2023/03/26 13:16:48;;;;;;;1.80;0.83;;;11.00;99.90;;;;;;5033234;28;20283;-75
2023/03/26 13:19:17;;;;;;;1.00;0.63;;;10.80;99.90;;;;;;5033061;28;20201;-74
2023/03/26 13:21:59;;;;;;;1.30;0.73;;;10.80;99.90;;;;;;5031836;28;20265;-74
2023/03/26 13:24:33;;;;;;;1.87;0.50;;;10.90;99.90;;;;;;5033135;28;20243;-74
2023/03/26 13:27:29;;;;;;;3.30;0.70;;;10.90;99.90;;;;;;5031784;28;20254;-75